createdAt,value
2023-04-11T00:02:11.920Z,13.06
2023-04-11T00:04:58.898Z,12.99
2023-04-11T00:07:45.405Z,12.88
2023-04-11T00:10:32.033Z,12.86
2023-04-11T00:13:19.704Z,12.80
2023-04-11T00:16:08.768Z,12.82
2023-04-11T00:18:57.182Z,12.74
2023-04-11T00:21:44.193Z,12.65
2023-04-11T00:24:30.846Z,12.90
2023-04-11T00:27:17.755Z,12.83
2023-04-11T00:30:08.350Z,12.68
2023-04-11T00:32:54.879Z,12.50
2023-04-11T00:35:41.485Z,12.57
2023-04-11T00:38:27.612Z,12.64
2023-04-11T00:41:14.012Z,12.66
2023-04-11T00:44:00.691Z,12.19
2023-04-11T00:46:47.327Z,12.49
2023-04-11T00:49:33.758Z,12.36
2023-04-11T00:52:20.152Z,12.42
2023-04-11T00:55:07.420Z,12.50
2023-04-11T00:57:55.057Z,12.53
2023-04-11T01:00:41.448Z,12.35
2023-04-11T01:03:29.259Z,12.54
2023-04-11T01:06:18.770Z,12.33
2023-04-11T01:09:05.453Z,12.09
2023-04-11T01:11:51.909Z,11.87
2023-04-11T01:14:39.697Z,11.45
2023-04-11T01:17:27.117Z,11.27
2023-04-11T01:20:14.127Z,11.15
2023-04-11T01:23:03.059Z,11.11
2023-04-11T01:25:50.279Z,11.02
2023-04-11T01:28:36.815Z,10.89
2023-04-11T01:31:24.315Z,10.67
2023-04-11T01:34:14.002Z,10.65
2023-04-11T01:37:00.694Z,10.55
2023-04-11T01:39:48.704Z,10.33
2023-04-11T01:42:36.906Z,10.07
2023-04-11T01:45:23.816Z,9.98
2023-04-11T01:48:10.242Z,9.89
2023-04-11T01:50:58.305Z,9.77
2023-04-11T01:53:47.293Z,9.67
2023-04-11T01:56:33.489Z,9.79
2023-04-11T01:59:20.774Z,9.73
2023-04-11T02:02:06.993Z,9.54
2023-04-11T02:04:53.333Z,9.21
2023-04-11T02:07:40.146Z,9.48
2023-04-11T02:10:26.376Z,9.38
2023-04-11T02:13:12.808Z,9.43
2023-04-11T02:16:08.225Z,9.29
2023-04-11T02:18:55.136Z,9.34
2023-04-11T02:21:41.693Z,9.46
2023-04-11T02:24:28.622Z,9.27
2023-04-11T02:27:15.193Z,9.43
2023-04-11T02:30:05.701Z,9.42
2023-04-11T02:32:52.532Z,9.33
2023-04-11T02:35:38.906Z,9.31
2023-04-11T02:38:25.769Z,9.41
2023-04-11T02:41:12.292Z,9.36
2023-04-11T02:43:58.678Z,9.35
2023-04-11T02:46:45.304Z,9.13
2023-04-11T02:49:32.211Z,9.23
2023-04-11T02:52:20.229Z,9.04
2023-04-11T02:55:07.083Z,8.60
2023-04-11T02:57:53.463Z,8.79
2023-04-11T03:00:41.725Z,8.91
2023-04-11T03:03:28.855Z,8.68
2023-04-11T03:06:16.236Z,8.69
2023-04-11T03:09:04.054Z,8.59
2023-04-11T03:11:52.201Z,8.57
2023-04-11T03:14:38.645Z,8.49
2023-04-11T03:17:25.436Z,8.60
2023-04-11T03:20:13.583Z,8.62
2023-04-11T03:23:04.963Z,8.57
2023-04-11T03:25:51.819Z,8.51
2023-04-11T03:28:39.230Z,7.93
2023-04-11T03:31:26.044Z,8.06
2023-04-11T03:34:13.640Z,8.48
2023-04-11T03:37:01.227Z,8.34
2023-04-11T03:39:47.695Z,8.22
2023-04-11T03:42:36.235Z,8.36
2023-04-11T03:45:25.449Z,8.19
2023-04-11T03:48:14.168Z,8.26
2023-04-11T03:51:11.533Z,8.21
2023-04-11T03:54:10.898Z,8.37
2023-04-11T03:57:01.026Z,8.16
2023-04-11T03:59:50.603Z,8.34
2023-04-11T04:02:37.095Z,8.49
2023-04-11T04:05:26.618Z,8.41
2023-04-11T04:08:13.664Z,8.19
2023-04-11T04:11:05.811Z,8.32
2023-04-11T04:13:55.696Z,8.31
2023-04-11T04:16:42.415Z,8.30
2023-04-11T04:19:30.353Z,8.37
2023-04-11T04:22:17.832Z,8.40
2023-04-11T04:25:12.761Z,8.24
2023-04-11T04:28:00.962Z,8.21
2023-04-11T04:30:54.384Z,8.45
2023-04-11T04:33:43.141Z,8.31
2023-04-11T04:36:49.185Z,8.16
2023-04-11T04:39:42.037Z,8.44
2023-04-11T04:42:30.911Z,8.30
2023-04-11T04:45:22.770Z,8.22
2023-04-11T04:48:09.468Z,8.33
2023-04-11T04:50:56.176Z,8.11
2023-04-11T04:53:42.702Z,7.91
2023-04-11T04:56:31.218Z,8.17
2023-04-11T04:59:18.774Z,7.92
2023-04-11T05:02:11.570Z,7.77
2023-04-11T05:05:04.018Z,7.82
2023-04-11T05:07:51.126Z,7.77
2023-04-11T05:10:37.784Z,7.73
2023-04-11T05:13:27.907Z,7.60
2023-04-11T05:16:14.560Z,7.64
2023-04-11T05:19:01.209Z,7.49
2023-04-11T05:21:49.586Z,7.66
2023-04-11T05:24:36.414Z,7.60
2023-04-11T05:27:27.277Z,7.70
2023-04-11T05:30:14.625Z,7.58
2023-04-11T05:33:06.492Z,7.65
2023-04-11T05:35:53.269Z,7.67
2023-04-11T05:38:46.567Z,7.77
2023-04-11T05:41:33.366Z,7.75
2023-04-11T05:44:23.537Z,7.86
2023-04-11T05:47:11.575Z,7.68
2023-04-11T05:49:58.166Z,7.92
2023-04-11T05:52:45.187Z,7.87
2023-04-11T05:55:31.481Z,7.57
2023-04-11T05:58:18.155Z,7.92
2023-04-11T06:01:07.256Z,7.69
2023-04-11T06:03:53.853Z,7.91
2023-04-11T06:06:40.391Z,8.01
2023-04-11T06:09:26.770Z,8.12
2023-04-11T06:12:13.004Z,7.95
2023-04-11T06:14:59.856Z,8.04
2023-04-11T06:17:45.936Z,7.97
2023-04-11T06:20:32.576Z,8.24
2023-04-11T06:23:19.031Z,8.12
2023-04-11T06:26:05.394Z,8.20
2023-04-11T06:28:51.961Z,8.21
2023-04-11T06:31:38.325Z,8.31
2023-04-11T06:34:24.936Z,8.45
2023-04-11T06:37:11.198Z,8.23
2023-04-11T06:39:59.785Z,8.40
2023-04-11T06:42:47.318Z,8.14
2023-04-11T06:45:34.647Z,8.32
2023-04-11T06:48:21.294Z,8.57
2023-04-11T06:51:09.037Z,8.64
2023-04-11T06:53:55.837Z,8.76
2023-04-11T06:56:43.221Z,8.73
2023-04-11T06:59:29.709Z,8.79
2023-04-11T07:02:16.737Z,8.81
2023-04-11T07:05:03.486Z,8.68
2023-04-11T07:07:50.150Z,8.77
2023-04-11T07:10:36.447Z,8.89
2023-04-11T07:13:22.795Z,8.91
2023-04-11T07:16:09.754Z,9.02
2023-04-11T07:18:56.740Z,8.97
2023-04-11T07:21:43.518Z,8.88
2023-04-11T07:24:30.518Z,8.92
2023-04-11T07:27:17.616Z,9.16
2023-04-11T07:30:04.975Z,9.19
2023-04-11T07:32:51.648Z,9.04
2023-04-11T07:35:38.014Z,9.23
2023-04-11T07:38:31.025Z,9.12
2023-04-11T07:41:17.473Z,9.22
2023-04-11T07:44:07.166Z,9.44
2023-04-11T07:46:53.655Z,9.41
2023-04-11T07:49:39.894Z,9.67
2023-04-11T07:52:26.341Z,9.93
2023-04-11T07:55:12.818Z,10.18
2023-04-11T07:57:58.924Z,10.34
2023-04-11T08:00:46.040Z,10.20
2023-04-11T08:03:32.628Z,10.11
2023-04-11T08:06:19.419Z,10.33
2023-04-11T08:09:05.675Z,10.38
2023-04-11T08:11:51.982Z,10.44
2023-04-11T08:14:38.287Z,10.41
2023-04-11T08:17:29.328Z,10.51
2023-04-11T08:20:16.773Z,10.67
2023-04-11T08:23:07.131Z,10.62
2023-04-11T08:25:53.260Z,10.75
2023-04-11T08:28:42.344Z,10.76
2023-04-11T08:31:29.359Z,10.84
2023-04-11T08:34:15.565Z,10.60
2023-04-11T08:37:01.788Z,10.93
2023-04-11T08:39:48.047Z,10.88
2023-04-11T08:42:34.946Z,10.77
2023-04-11T08:45:21.380Z,11.00
2023-04-11T08:48:09.243Z,11.31
2023-04-11T08:50:56.933Z,11.09
2023-04-11T08:53:43.569Z,10.89
2023-04-11T08:56:29.774Z,10.72
2023-04-11T08:59:17.484Z,10.49
2023-04-11T09:02:11.169Z,10.47
2023-04-11T09:04:57.853Z,10.53
2023-04-11T09:07:50.645Z,10.58
2023-04-11T09:10:39.041Z,10.72
2023-04-11T09:13:27.418Z,10.92
2023-04-11T09:16:14.630Z,10.83
2023-04-11T09:19:01.243Z,10.74
2023-04-11T09:21:50.737Z,11.10
2023-04-11T09:24:37.592Z,11.01
2023-04-11T09:27:26.140Z,11.09
2023-04-11T09:30:23.832Z,10.85
2023-04-11T09:33:28.834Z,10.94
2023-04-11T09:36:20.632Z,11.25
2023-04-11T09:39:20.346Z,11.58
2023-04-11T09:42:25.557Z,11.54
2023-04-11T09:45:25.637Z,11.48
2023-04-11T09:48:12.791Z,11.74
2023-04-11T09:51:00.828Z,12.01
2023-04-11T09:53:47.345Z,12.15
2023-04-11T09:56:37.178Z,11.74
2023-04-11T09:59:26.478Z,11.77
2023-04-11T10:02:13.204Z,11.98
2023-04-11T10:05:04.285Z,11.62
2023-04-11T10:07:56.802Z,11.69
2023-04-11T10:10:44.283Z,11.58
2023-04-11T10:13:39.685Z,11.87
2023-04-11T10:16:28.329Z,11.76
2023-04-11T10:19:18.548Z,11.69
2023-04-11T10:22:04.878Z,11.81
2023-04-11T10:25:20.351Z,11.87
2023-04-11T10:28:07.105Z,11.88
2023-04-11T10:31:01.665Z,11.72
2023-04-11T10:34:14.342Z,11.66
2023-04-11T10:37:06.178Z,11.48
2023-04-11T10:39:57.830Z,11.73
2023-04-11T10:42:46.521Z,11.83
2023-04-11T10:45:39.515Z,12.03
2023-04-11T10:48:26.187Z,12.18
2023-04-11T10:51:24.859Z,12.40
2023-04-11T10:54:28.171Z,12.11
2023-04-11T10:57:14.791Z,12.09
2023-04-11T11:00:12.156Z,11.82
2023-04-11T11:02:59.206Z,11.91
2023-04-11T11:05:46.023Z,11.68
2023-04-11T11:08:41.730Z,11.70
2023-04-11T11:11:28.203Z,11.39
2023-04-11T11:14:30.196Z,11.28
2023-04-11T11:17:17.344Z,11.61
2023-04-11T11:20:10.058Z,11.92
2023-04-11T11:23:05.144Z,11.97
2023-04-11T11:25:55.758Z,12.47
2023-04-11T11:28:49.220Z,12.64
2023-04-11T11:31:39.103Z,12.49
2023-04-11T11:34:31.407Z,12.44
2023-04-11T11:37:17.634Z,12.24
2023-04-11T11:40:12.570Z,12.16
2023-04-11T11:42:59.048Z,11.93
2023-04-11T11:45:45.678Z,12.13
2023-04-11T11:48:32.119Z,12.46
2023-04-11T11:51:18.246Z,12.91
2023-04-11T11:54:09.460Z,13.20
2023-04-11T11:56:55.952Z,13.14
2023-04-11T11:59:42.667Z,13.26
2023-04-11T12:02:29.510Z,13.43
2023-04-11T12:05:17.225Z,13.62
2023-04-11T12:08:06.045Z,14.33
2023-04-11T12:10:52.561Z,13.77
2023-04-11T12:13:38.798Z,13.94
2023-04-11T12:16:25.520Z,13.63
2023-04-11T12:19:13.382Z,13.69
2023-04-11T12:22:01.640Z,13.56
2023-04-11T12:24:52.649Z,13.48
2023-04-11T12:27:42.090Z,13.49
2023-04-11T12:30:30.084Z,13.95
2023-04-11T12:33:16.598Z,13.89
2023-04-11T12:36:03.578Z,13.64
2023-04-11T12:38:50.473Z,13.44
2023-04-11T12:41:36.647Z,13.23
2023-04-11T12:44:23.146Z,13.10
2023-04-11T12:47:09.465Z,13.12
2023-04-11T12:49:55.944Z,12.71
2023-04-11T12:52:42.381Z,12.82
2023-04-11T12:55:28.758Z,12.86
2023-04-11T12:58:15.768Z,13.38
2023-04-11T13:01:02.035Z,13.14
2023-04-11T13:03:48.779Z,13.33
2023-04-11T13:06:36.527Z,13.03
2023-04-11T13:09:22.974Z,12.86
2023-04-11T13:12:09.169Z,12.88
2023-04-11T13:14:56.824Z,12.80
2023-04-11T13:17:43.383Z,13.20
2023-04-11T13:20:30.037Z,13.47
2023-04-11T13:23:17.349Z,13.09
2023-04-11T13:26:03.915Z,13.37
2023-04-11T13:28:51.160Z,13.70
2023-04-11T13:31:37.357Z,13.89
2023-04-11T13:34:23.791Z,13.94
2023-04-11T13:37:10.389Z,13.90
2023-04-11T13:39:56.773Z,13.82
2023-04-11T13:42:43.106Z,13.88
2023-04-11T13:45:29.713Z,13.78
2023-04-11T13:48:16.205Z,13.80
2023-04-11T13:51:04.432Z,14.04
2023-04-11T13:53:51.168Z,14.28
2023-04-11T13:56:38.072Z,14.31
2023-04-11T13:59:24.735Z,14.38
2023-04-11T14:02:11.063Z,14.30
2023-04-11T14:04:58.131Z,14.09
2023-04-11T14:07:44.366Z,14.21
2023-04-11T14:10:30.880Z,13.93
2023-04-11T14:13:17.076Z,13.94
2023-04-11T14:16:08.752Z,13.97
2023-04-11T14:18:56.295Z,13.98
2023-04-11T14:21:42.941Z,13.82
2023-04-11T14:24:29.172Z,13.92
2023-04-11T14:27:15.502Z,14.21
2023-04-11T14:30:02.139Z,14.01
2023-04-11T14:32:48.297Z,14.21
2023-04-11T14:35:34.546Z,14.18
2023-04-11T14:38:21.125Z,14.06
2023-04-11T14:41:07.476Z,13.90
2023-04-11T14:43:53.802Z,13.43
2023-04-11T14:46:40.304Z,13.64
2023-04-11T14:49:26.431Z,13.48
2023-04-11T14:52:12.780Z,13.75
2023-04-11T14:54:59.282Z,13.99
2023-04-11T14:57:48.179Z,14.02
2023-04-11T15:00:35.311Z,13.75
2023-04-11T15:03:22.120Z,13.76
2023-04-11T15:06:11.031Z,13.43
2023-04-11T15:08:57.460Z,13.52
2023-04-11T15:11:44.039Z,13.65
2023-04-11T15:14:30.313Z,13.88
2023-04-11T15:17:16.549Z,14.08
2023-04-11T15:20:05.162Z,14.27
2023-04-11T15:22:51.455Z,14.14
2023-04-11T15:25:37.750Z,13.99
2023-04-11T15:28:25.441Z,13.58
2023-04-11T15:31:12.949Z,13.82
2023-04-11T15:34:03.602Z,13.68
2023-04-11T15:36:50.040Z,13.90
2023-04-11T15:39:36.566Z,13.83
2023-04-11T15:42:22.672Z,13.83
2023-04-11T15:45:09.816Z,13.53
2023-04-11T15:47:56.395Z,13.49
2023-04-11T15:50:43.945Z,13.28
2023-04-11T15:53:30.346Z,13.06
2023-04-11T15:56:18.872Z,13.05
2023-04-11T15:59:18.587Z,13.06
2023-04-11T16:02:05.585Z,13.11
2023-04-11T16:04:54.139Z,13.16
2023-04-11T16:07:42.386Z,13.21
2023-04-11T16:10:30.086Z,13.27
2023-04-11T16:13:16.672Z,13.24
2023-04-11T16:16:03.510Z,13.17
2023-04-11T16:18:49.839Z,13.18
2023-04-11T16:21:36.104Z,12.96
2023-04-11T16:24:22.406Z,13.14
2023-04-11T16:27:08.791Z,13.12
2023-04-11T16:29:59.782Z,13.05
2023-04-11T16:32:46.205Z,13.10
2023-04-11T16:35:32.911Z,13.14
2023-04-11T16:38:19.114Z,12.86
2023-04-11T16:41:05.931Z,13.09
2023-04-11T16:43:52.253Z,13.01
2023-04-11T16:46:39.828Z,12.87
2023-04-11T16:49:26.179Z,13.02
2023-04-11T16:52:12.891Z,12.77
2023-04-11T16:54:59.189Z,12.80
2023-04-11T16:57:45.666Z,12.65
2023-04-11T17:00:32.566Z,12.67
2023-04-11T17:03:19.918Z,12.77
2023-04-11T17:06:14.792Z,12.79
2023-04-11T17:09:01.496Z,12.59
2023-04-11T17:11:48.059Z,12.52
2023-04-11T17:14:35.614Z,12.35
2023-04-11T17:17:22.892Z,12.36
2023-04-11T17:20:10.227Z,12.18
2023-04-11T17:22:56.898Z,12.23
2023-04-11T17:25:43.390Z,12.03
2023-04-11T17:28:29.677Z,11.79
2023-04-11T17:31:18.593Z,11.85
2023-04-11T17:34:05.217Z,11.73
2023-04-11T17:36:51.595Z,11.74
2023-04-11T17:39:38.102Z,11.63
2023-04-11T17:42:24.689Z,11.61
2023-04-11T17:45:17.550Z,11.39
2023-04-11T17:48:08.099Z,11.27
2023-04-11T17:50:55.938Z,11.33
2023-04-11T17:53:42.146Z,11.24
2023-04-11T17:56:29.416Z,11.06
2023-04-11T18:03:54.679Z,10.82
2023-04-11T18:06:42.406Z,10.68
2023-04-11T18:09:31.735Z,10.54
2023-04-11T18:12:18.001Z,9.96
2023-04-11T18:15:06.081Z,10.34
2023-04-11T18:17:53.046Z,9.98
2023-04-11T18:20:39.238Z,9.67
2023-04-11T18:23:25.607Z,9.38
2023-04-11T18:26:12.305Z,9.22
2023-04-11T18:29:00.340Z,9.03
2023-04-11T18:31:46.989Z,9.26
2023-04-11T18:34:33.342Z,8.97
2023-04-11T18:37:21.399Z,8.73
2023-04-11T18:40:14.184Z,8.98
2023-04-11T18:43:00.950Z,9.03
2023-04-11T18:45:49.357Z,9.12
2023-04-11T18:48:36.503Z,8.95
2023-04-11T18:51:23.087Z,8.78
2023-04-11T18:54:09.635Z,8.62
2023-04-11T18:56:57.194Z,8.46
2023-04-11T18:59:47.675Z,8.39
2023-04-11T19:02:36.606Z,8.70
2023-04-11T19:05:25.371Z,8.65
2023-04-11T19:08:12.264Z,8.38
2023-04-11T19:10:59.147Z,8.27
2023-04-11T19:13:45.819Z,8.10
2023-04-11T19:16:33.335Z,8.17
2023-04-11T19:19:20.121Z,7.83
2023-04-11T19:22:07.356Z,7.88
2023-04-11T19:24:53.892Z,7.83
2023-04-11T19:27:41.755Z,7.70
2023-04-11T19:30:28.667Z,7.65
2023-04-11T19:33:15.381Z,7.72
2023-04-11T19:36:02.557Z,7.67
2023-04-11T19:38:48.762Z,7.50
2023-04-11T19:41:34.998Z,7.38
2023-04-11T19:44:21.157Z,7.24
2023-04-11T19:47:07.325Z,7.33
2023-04-11T19:49:53.654Z,7.49
2023-04-11T19:52:41.714Z,7.47
2023-04-11T19:55:28.037Z,7.26
2023-04-11T19:58:15.850Z,7.39
2023-04-11T20:01:03.813Z,7.27
2023-04-11T20:03:53.702Z,7.47
2023-04-11T20:06:43.850Z,7.10
2023-04-11T20:09:30.313Z,7.15
2023-04-11T20:12:16.773Z,7.32
2023-04-11T20:15:03.400Z,7.37
2023-04-11T20:17:49.842Z,7.30
2023-04-11T20:20:36.825Z,7.11
2023-04-11T20:23:24.160Z,7.15
2023-04-11T20:26:10.571Z,7.30
2023-04-11T20:28:59.923Z,7.24
2023-04-11T20:31:46.238Z,7.00
2023-04-11T20:34:32.510Z,7.06
2023-04-11T20:37:19.484Z,7.11
2023-04-11T20:40:07.246Z,7.24
2023-04-11T20:42:53.467Z,7.33
2023-04-11T20:45:39.605Z,7.33
2023-04-11T20:48:29.550Z,7.48
2023-04-11T20:51:17.543Z,7.39
2023-04-11T20:54:03.942Z,7.38
2023-04-11T20:56:50.085Z,7.23
2023-04-11T20:59:38.199Z,7.32
2023-04-11T21:02:24.971Z,6.88
2023-04-11T21:05:13.358Z,7.39
2023-04-11T21:07:59.577Z,7.20
2023-04-11T21:10:46.103Z,7.36
2023-04-11T21:13:32.535Z,7.24
2023-04-11T21:16:18.802Z,6.99
2023-04-11T21:19:05.032Z,7.26
2023-04-11T21:21:51.379Z,7.29
2023-04-11T21:24:37.965Z,7.15
2023-04-11T21:27:24.278Z,7.04
2023-04-11T21:30:11.375Z,7.11
2023-04-11T21:32:57.946Z,7.05
2023-04-11T21:35:44.718Z,7.25
2023-04-11T21:38:30.982Z,7.20
2023-04-11T21:41:17.443Z,7.36
2023-04-11T21:44:03.836Z,7.14
2023-04-11T21:46:50.351Z,7.26
2023-04-11T21:49:36.781Z,7.18
2023-04-11T21:52:22.982Z,7.25
2023-04-11T21:55:09.772Z,7.06
2023-04-11T21:57:56.346Z,7.28
2023-04-11T22:00:42.547Z,7.08
2023-04-11T22:03:29.039Z,7.26
2023-04-11T22:06:16.163Z,7.17
2023-04-11T22:09:03.205Z,7.20
2023-04-11T22:11:50.156Z,7.26
2023-04-11T22:14:38.200Z,7.21
2023-04-11T22:17:24.460Z,7.14
2023-04-11T22:20:11.180Z,7.26
2023-04-11T22:22:57.588Z,7.28
2023-04-11T22:25:44.264Z,7.40
2023-04-11T22:28:31.117Z,6.47
2023-04-11T22:31:17.718Z,7.22
2023-04-11T22:34:04.747Z,7.21
2023-04-11T22:36:50.784Z,6.90
2023-04-11T22:39:37.385Z,6.99
2023-04-11T22:42:24.765Z,7.15
2023-04-11T22:45:11.541Z,7.00
2023-04-11T22:48:00.092Z,7.10
2023-04-11T22:50:52.625Z,6.91
2023-04-11T22:53:42.115Z,6.94
2023-04-11T22:56:28.653Z,6.99
2023-04-11T22:59:15.126Z,7.10
2023-04-11T23:02:01.656Z,6.99
2023-04-11T23:04:48.288Z,7.12
2023-04-11T23:07:34.806Z,7.08
2023-04-11T23:10:21.277Z,7.12
2023-04-11T23:13:08.402Z,6.91
2023-04-11T23:15:54.778Z,7.10
2023-04-11T23:18:41.100Z,6.99
2023-04-11T23:21:28.996Z,7.10
2023-04-11T23:24:15.824Z,7.07
2023-04-11T23:27:02.474Z,7.09
2023-04-11T23:29:52.716Z,7.11
2023-04-11T23:32:39.791Z,7.05
2023-04-11T23:35:26.085Z,7.19
2023-04-11T23:38:12.287Z,7.23
2023-04-11T23:40:59.215Z,7.08
2023-04-11T23:43:46.036Z,7.33
2023-04-11T23:46:32.713Z,7.37
2023-04-11T23:49:19.172Z,7.43
2023-04-11T23:52:05.496Z,7.71
2023-04-11T23:54:52.177Z,7.48
2023-04-11T23:57:38.485Z,7.72
